createdAt,value
2019-02-02T00:00:14.451Z,1.84
2019-02-02T00:01:24.389Z,1.76
2019-02-02T00:02:34.082Z,1.79
2019-02-02T00:03:44.052Z,1.71
2019-02-02T00:04:53.990Z,1.79
2019-02-02T00:06:03.953Z,1.76
2019-02-02T00:07:13.398Z,1.71
2019-02-02T00:08:23.080Z,1.79
2019-02-02T00:09:32.890Z,1.75
2019-02-02T00:10:42.590Z,1.76
2019-02-02T00:11:52.302Z,1.78
2019-02-02T00:13:02.245Z,1.76
2019-02-02T00:14:12.174Z,1.68
2019-02-02T00:15:21.848Z,1.78
2019-02-02T00:16:31.550Z,1.7
2019-02-02T00:17:41.034Z,1.68
2019-02-02T00:18:50.979Z,1.76
2019-02-02T00:20:00.958Z,1.79
2019-02-02T00:21:10.659Z,1.7
2019-02-02T00:22:20.603Z,1.7
2019-02-02T00:23:30.550Z,1.74
2019-02-02T00:24:40.488Z,1.79
2019-02-02T00:25:50.435Z,1.68
2019-02-02T00:27:00.358Z,1.7
2019-02-02T00:28:10.045Z,1.75
2019-02-02T00:29:19.981Z,1.76
2019-02-02T00:30:29.178Z,1.68
2019-02-02T00:31:39.124Z,1.76
2019-02-02T00:32:49.058Z,1.71
2019-02-02T00:33:58.768Z,1.75
2019-02-02T00:35:08.700Z,1.66
2019-02-02T00:36:18.496Z,1.71
2019-02-02T00:37:28.195Z,1.7
2019-02-02T00:38:38.132Z,1.74
2019-02-02T00:39:48.076Z,1.79
2019-02-02T00:40:58.010Z,1.67
2019-02-02T00:42:08.001Z,1.71
2019-02-02T00:43:17.959Z,1.64
2019-02-02T00:44:27.659Z,1.76
2019-02-02T00:45:37.609Z,1.64
2019-02-02T00:46:47.552Z,1.67
2019-02-02T00:47:56.980Z,1.66
2019-02-02T00:49:06.692Z,1.6
2019-02-02T00:50:16.652Z,1.63
2019-02-02T00:51:26.607Z,1.7
2019-02-02T00:52:36.026Z,1.68
2019-02-02T00:53:45.463Z,1.74
2019-02-02T00:54:55.403Z,1.71
2019-02-02T00:56:05.098Z,1.66
2019-02-02T00:57:14.543Z,1.75
2019-02-02T00:58:24.559Z,1.76
2019-02-02T00:59:34.599Z,1.75
2019-02-02T01:00:44.293Z,1.7
2019-02-02T01:01:54.248Z,1.79
2019-02-02T01:03:03.948Z,1.81
2019-02-02T01:04:13.622Z,1.67
2019-02-02T01:05:23.319Z,1.76
2019-02-02T01:06:33.248Z,1.78
2019-02-02T01:07:43.222Z,1.67
2019-02-02T01:08:53.168Z,1.61
2019-02-02T01:10:03.237Z,1.68
2019-02-02T01:11:13.173Z,1.66
2019-02-02T01:12:23.117Z,1.61
2019-02-02T01:13:32.805Z,1.64
2019-02-02T01:14:42.764Z,1.63
2019-02-02T01:15:52.212Z,1.66
2019-02-02T01:17:02.150Z,1.63
2019-02-02T01:18:12.092Z,1.61
2019-02-02T01:19:21.788Z,1.63
2019-02-02T01:20:31.243Z,1.58
2019-02-02T01:21:41.193Z,1.58
2019-02-02T01:22:50.890Z,1.67
2019-02-02T01:24:00.816Z,1.66
2019-02-02T01:25:10.265Z,1.63
2019-02-02T01:26:20.207Z,1.56
2019-02-02T01:27:30.143Z,1.64
2019-02-02T01:28:40.090Z,1.56
2019-02-02T01:29:50.024Z,1.58
2019-02-02T01:30:59.722Z,1.58
2019-02-02T01:32:09.675Z,1.52
2019-02-02T01:33:21.630Z,1.52
2019-02-02T01:34:31.575Z,1.53
2019-02-02T01:35:41.269Z,1.52
2019-02-02T01:36:50.941Z,1.52
2019-02-02T01:38:00.641Z,1.57
2019-02-02T01:39:10.210Z,1.58
2019-02-02T01:40:19.703Z,1.52
2019-02-02T01:41:29.666Z,1.46
2019-02-02T01:42:39.350Z,1.56
2019-02-02T01:43:49.044Z,1.6
2019-02-02T01:44:58.981Z,1.52
2019-02-02T01:46:08.917Z,1.53
2019-02-02T01:47:18.377Z,1.53
2019-02-02T01:48:28.065Z,1.6
2019-02-02T01:49:37.499Z,1.53
2019-02-02T01:50:47.430Z,1.48
2019-02-02T01:51:57.396Z,1.45
2019-02-02T01:53:07.337Z,1.52
2019-02-02T01:54:17.267Z,1.52
2019-02-02T01:55:26.947Z,1.53
2019-02-02T01:56:36.664Z,1.5
2019-02-02T01:57:46.341Z,1.5
2019-02-02T01:58:56.027Z,1.45
2019-02-02T02:00:05.985Z,1.52
2019-02-02T02:01:15.938Z,1.56
2019-02-02T02:02:25.888Z,1.43
2019-02-02T02:03:35.576Z,1.48
2019-02-02T02:04:45.520Z,1.43
2019-02-02T02:05:55.243Z,1.43
2019-02-02T02:07:04.929Z,1.42
2019-02-02T02:08:14.607Z,1.48
2019-02-02T02:09:24.306Z,1.48
2019-02-02T02:10:34.005Z,1.42
2019-02-02T02:11:43.705Z,1.48
2019-02-02T02:12:53.640Z,1.4
2019-02-02T02:14:03.076Z,1.42
2019-02-02T02:15:13.091Z,1.39
2019-02-02T02:16:23.044Z,1.39
2019-02-02T02:17:32.993Z,1.45
2019-02-02T02:18:42.920Z,1.36
2019-02-02T02:19:52.454Z,1.46
2019-02-02T02:21:02.242Z,1.48
2019-02-02T02:22:12.181Z,1.38
2019-02-02T02:23:21.854Z,1.45
2019-02-02T02:24:31.540Z,1.43
2019-02-02T02:25:41.477Z,1.42
2019-02-02T02:26:51.419Z,1.38
2019-02-02T02:28:00.859Z,1.39
2019-02-02T02:29:10.805Z,1.48
2019-02-02T02:30:20.774Z,1.45
2019-02-02T02:31:30.741Z,1.43
2019-02-02T02:32:40.695Z,1.48
2019-02-02T02:33:50.407Z,1.43
2019-02-02T02:35:00.351Z,1.46
2019-02-02T02:36:09.780Z,1.36
2019-02-02T02:37:19.745Z,1.32
2019-02-02T02:38:29.171Z,1.39
2019-02-02T02:39:39.126Z,1.45
2019-02-02T02:40:49.076Z,1.46
2019-02-02T02:41:59.035Z,1.5
2019-02-02T02:43:08.758Z,1.53
2019-02-02T02:44:18.473Z,1.4
2019-02-02T02:45:28.649Z,1.45
2019-02-02T02:46:38.334Z,1.45
2019-02-02T02:47:48.326Z,1.48
2019-02-02T02:48:58.030Z,1.48
2019-02-02T02:50:08.109Z,1.45
2019-02-02T02:51:18.093Z,1.39
2019-02-02T02:52:27.791Z,1.43
2019-02-02T02:53:37.229Z,1.49
2019-02-02T02:54:47.024Z,1.4
2019-02-02T02:55:56.959Z,1.42
2019-02-02T02:57:06.636Z,1.48
2019-02-02T02:58:16.592Z,1.57
2019-02-02T02:59:26.270Z,1.45
2019-02-02T03:00:36.323Z,1.39
2019-02-02T03:01:46.271Z,1.45
2019-02-02T03:02:56.096Z,1.46
2019-02-02T03:04:06.058Z,1.38
2019-02-02T03:05:15.987Z,1.36
2019-02-02T03:06:25.957Z,1.4
2019-02-02T03:07:35.914Z,1.32
2019-02-02T03:08:45.887Z,1.36
2019-02-02T03:09:55.850Z,1.27
2019-02-02T03:11:05.784Z,1.27
2019-02-02T03:12:15.471Z,1.25
2019-02-02T03:13:25.175Z,1.28
2019-02-02T03:14:35.135Z,1.25
2019-02-02T03:15:44.826Z,1.25
2019-02-02T03:16:54.535Z,1.18
2019-02-02T03:18:03.971Z,1.18
2019-02-02T03:19:14.037Z,1.18
2019-02-02T03:20:23.491Z,1.14
2019-02-02T03:21:33.440Z,1.13
2019-02-02T03:22:43.395Z,1.14
2019-02-02T03:23:53.352Z,1.16
2019-02-02T03:25:03.303Z,1.22
2019-02-02T03:26:12.997Z,1.14
2019-02-02T03:27:22.976Z,1.25
2019-02-02T03:28:32.916Z,1.24
2019-02-02T03:29:42.847Z,1.27
2019-02-02T03:30:52.548Z,1.18
2019-02-02T03:32:02.518Z,1.21
2019-02-02T03:33:12.479Z,1.21
2019-02-02T03:34:22.205Z,1.14
2019-02-02T03:35:32.135Z,1.12
2019-02-02T03:36:41.974Z,1.14
2019-02-02T03:37:51.957Z,1.24
2019-02-02T03:39:01.957Z,1.12
2019-02-02T03:40:11.903Z,1.16
2019-02-02T03:41:21.624Z,1.16
2019-02-02T03:42:31.586Z,1.18
2019-02-02T03:43:41.289Z,1.21
2019-02-02T03:44:51.216Z,1.13
2019-02-02T03:46:01.009Z,1.24
2019-02-02T03:47:10.994Z,1.21
2019-02-02T03:48:20.926Z,1.18
2019-02-02T03:49:30.621Z,1.24
2019-02-02T03:50:40.587Z,1.22
2019-02-02T03:51:50.635Z,1.21
2019-02-02T03:53:00.766Z,1.27
2019-02-02T03:54:13.950Z,1.27
2019-02-02T03:55:23.804Z,1.24
2019-02-02T03:56:33.755Z,1.28
2019-02-02T03:57:43.706Z,1.31
2019-02-02T03:59:05.585Z,1.25
2019-02-02T04:00:15.930Z,1.27
2019-02-02T04:01:25.951Z,1.32
2019-02-02T04:02:37.837Z,1.31
2019-02-02T04:03:47.539Z,1.39
2019-02-02T04:04:57.222Z,1.42
2019-02-02T04:06:07.197Z,1.38
2019-02-02T04:07:17.139Z,1.34
2019-02-02T04:08:27.071Z,1.42
2019-02-02T04:09:37.020Z,1.45
2019-02-02T04:10:46.968Z,1.39
2019-02-02T04:11:56.938Z,1.45
2019-02-02T04:13:06.636Z,1.3
2019-02-02T04:14:16.330Z,1.36
2019-02-02T04:15:26.267Z,1.34
2019-02-02T04:16:35.968Z,1.38
2019-02-02T04:17:45.952Z,1.45
2019-02-02T04:18:55.633Z,1.38
2019-02-02T04:20:05.582Z,1.34
2019-02-02T04:21:15.513Z,1.4
2019-02-02T04:22:24.948Z,1.38
2019-02-02T04:23:34.378Z,1.39
2019-02-02T04:24:44.311Z,1.42
2019-02-02T04:25:54.196Z,1.4
2019-02-02T04:27:03.631Z,1.38
2019-02-02T04:28:13.064Z,1.45
2019-02-02T04:29:23.018Z,1.43
2019-02-02T04:30:32.748Z,1.32
2019-02-02T04:31:42.440Z,1.39
2019-02-02T04:32:52.134Z,1.34
2019-02-02T04:34:01.578Z,1.48
2019-02-02T04:35:11.310Z,1.46
2019-02-02T04:36:21.265Z,1.42
2019-02-02T04:37:31.208Z,1.34
2019-02-02T04:38:43.583Z,1.43
2019-02-02T04:39:53.511Z,1.48
2019-02-02T04:41:03.457Z,1.48
2019-02-02T04:42:13.384Z,1.48
2019-02-02T04:43:23.063Z,1.36
2019-02-02T04:44:33.013Z,1.4
2019-02-02T04:45:42.435Z,1.43
2019-02-02T04:46:52.111Z,1.43
2019-02-02T04:48:02.062Z,1.53
2019-02-02T04:49:11.742Z,1.43
2019-02-02T04:50:21.436Z,1.45
2019-02-02T04:51:31.125Z,1.46
2019-02-02T04:52:40.892Z,1.45
2019-02-02T04:53:50.830Z,1.49
2019-02-02T04:55:03.032Z,1.49
2019-02-02T04:56:12.723Z,1.48
2019-02-02T04:57:22.406Z,1.43
2019-02-02T04:58:32.361Z,1.43
2019-02-02T04:59:42.296Z,1.4
2019-02-02T05:00:51.982Z,1.46
2019-02-02T05:02:01.906Z,1.49
2019-02-02T05:03:11.840Z,1.4
2019-02-02T05:04:21.534Z,1.45
2019-02-02T05:05:31.485Z,1.36
2019-02-02T05:06:41.420Z,1.34
2019-02-02T05:07:51.116Z,1.32
2019-02-02T05:09:01.056Z,1.38
2019-02-02T05:10:10.760Z,1.28
2019-02-02T05:11:20.478Z,1.31
2019-02-02T05:12:30.424Z,1.38
2019-02-02T05:13:40.382Z,1.31
2019-02-02T05:14:50.078Z,1.31
2019-02-02T05:16:00.016Z,1.38
2019-02-02T05:17:09.738Z,1.36
2019-02-02T05:18:18.912Z,1.36
2019-02-02T05:19:28.876Z,1.38
2019-02-02T05:20:38.826Z,1.32
2019-02-02T05:21:48.592Z,1.39
2019-02-02T05:22:58.532Z,1.36
2019-02-02T05:24:08.223Z,1.4
2019-02-02T05:25:18.214Z,1.34
2019-02-02T05:26:27.668Z,1.42
2019-02-02T05:27:37.173Z,1.39
2019-02-02T05:28:46.862Z,1.39
2019-02-02T05:29:56.540Z,1.43
2019-02-02T05:31:06.249Z,1.5
2019-02-02T05:32:16.191Z,1.36
2019-02-02T05:33:25.631Z,1.38
2019-02-02T05:34:35.558Z,1.46
2019-02-02T05:35:45.246Z,1.45
2019-02-02T05:36:55.188Z,1.38
2019-02-02T05:38:05.204Z,1.5
2019-02-02T05:39:15.129Z,1.43
2019-02-02T05:40:25.071Z,1.45
2019-02-02T05:41:35.026Z,1.45
2019-02-02T05:42:44.474Z,1.43
2019-02-02T05:43:54.449Z,1.43
2019-02-02T05:45:04.143Z,1.45
2019-02-02T05:46:13.832Z,1.46
2019-02-02T05:47:23.520Z,1.43
2019-02-02T05:48:33.462Z,1.49
2019-02-02T05:49:43.144Z,1.48
2019-02-02T05:50:55.018Z,1.56
2019-02-02T05:52:04.963Z,1.56
2019-02-02T05:53:14.656Z,1.58
2019-02-02T05:54:24.606Z,1.52
2019-02-02T05:55:34.560Z,1.52
2019-02-02T05:56:44.264Z,1.53
2019-02-02T05:57:53.951Z,1.52
2019-02-02T05:59:03.654Z,1.49
2019-02-02T06:00:13.096Z,1.49
2019-02-02T06:01:22.542Z,1.56
2019-02-02T06:02:35.356Z,1.57
2019-02-02T06:03:45.313Z,1.48
2019-02-02T06:04:55.266Z,1.49
2019-02-02T06:06:04.964Z,1.5
2019-02-02T06:07:14.918Z,1.46
2019-02-02T06:08:24.931Z,1.46
2019-02-02T06:09:34.869Z,1.48
2019-02-02T06:10:44.830Z,1.46
2019-02-02T06:11:54.767Z,1.49
2019-02-02T06:13:04.878Z,1.42
2019-02-02T06:14:14.828Z,1.46
2019-02-02T06:15:24.516Z,1.45
2019-02-02T06:16:36.190Z,1.48
2019-02-02T06:17:45.638Z,1.43
2019-02-02T06:18:55.583Z,1.52
2019-02-02T06:20:05.539Z,1.52
2019-02-02T06:21:15.605Z,1.52
2019-02-02T06:22:25.554Z,1.58
2019-02-02T06:23:35.502Z,1.58
2019-02-02T06:24:45.179Z,1.49
2019-02-02T06:25:57.874Z,1.46
2019-02-02T06:27:07.609Z,1.46
2019-02-02T06:28:17.047Z,1.46
2019-02-02T06:29:26.480Z,1.46
2019-02-02T06:30:36.414Z,1.42
2019-02-02T06:31:46.363Z,1.43
2019-02-02T06:32:56.305Z,1.56
2019-02-02T06:34:06.255Z,1.45
2019-02-02T06:35:15.940Z,1.46
2019-02-02T06:36:25.647Z,1.43
2019-02-02T06:37:35.601Z,1.48
2019-02-02T06:38:45.289Z,1.48
2019-02-02T06:39:55.213Z,1.48
2019-02-02T06:41:05.187Z,1.52
2019-02-02T06:42:15.131Z,1.49
2019-02-02T06:43:24.829Z,1.52
2019-02-02T06:44:37.878Z,1.56
2019-02-02T06:45:47.809Z,1.52
2019-02-02T06:46:57.770Z,1.58
2019-02-02T06:48:07.473Z,1.53
2019-02-02T06:49:17.159Z,1.49
2019-02-02T06:50:27.102Z,1.53
2019-02-02T06:51:37.028Z,1.48
2019-02-02T06:52:46.969Z,1.52
2019-02-02T06:53:56.645Z,1.56
2019-02-02T06:55:06.356Z,1.6
2019-02-02T06:56:16.334Z,1.53
2019-02-02T06:57:26.286Z,1.49
2019-02-02T06:58:36.226Z,1.56
2019-02-02T06:59:45.923Z,1.58
2019-02-02T07:00:55.864Z,1.58
2019-02-02T07:02:05.799Z,1.58
2019-02-02T07:03:15.756Z,1.49
2019-02-02T07:04:25.692Z,1.56
2019-02-02T07:05:38.862Z,1.53
2019-02-02T07:06:48.293Z,1.56
2019-02-02T07:07:57.751Z,1.56
2019-02-02T07:09:07.440Z,1.53
2019-02-02T07:10:17.381Z,1.4
2019-02-02T07:11:27.329Z,1.52
2019-02-02T07:12:37.298Z,1.56
2019-02-02T07:13:47.227Z,1.52
2019-02-02T07:14:57.188Z,1.48
2019-02-02T07:16:07.145Z,1.53
2019-02-02T07:17:16.832Z,1.48
2019-02-02T07:18:26.569Z,1.49
2019-02-02T07:19:36.750Z,1.45
2019-02-02T07:20:46.699Z,1.46
2019-02-02T07:21:56.654Z,1.46
2019-02-02T07:23:06.587Z,1.43
2019-02-02T07:24:16.302Z,1.43
2019-02-02T07:25:26.257Z,1.43
2019-02-02T07:26:36.216Z,1.45
2019-02-02T07:27:45.927Z,1.53
2019-02-02T07:28:55.915Z,1.46
2019-02-02T07:30:07.667Z,1.58
2019-02-02T07:31:17.674Z,1.57
2019-02-02T07:32:27.367Z,1.52
2019-02-02T07:33:37.332Z,1.49
2019-02-02T07:34:47.259Z,1.48
2019-02-02T07:35:58.792Z,1.46
2019-02-02T07:37:08.806Z,1.42
2019-02-02T07:38:18.765Z,1.46
2019-02-02T07:39:28.453Z,1.4
2019-02-02T07:40:38.142Z,1.48
2019-02-02T07:41:48.119Z,1.45
2019-02-02T07:42:57.801Z,1.43
2019-02-02T07:44:07.492Z,1.45
2019-02-02T07:45:17.201Z,1.42
2019-02-02T07:46:27.153Z,1.57
2019-02-02T07:47:37.095Z,1.45
2019-02-02T07:48:47.028Z,1.42
2019-02-02T07:49:56.457Z,1.49
2019-02-02T07:51:06.401Z,1.45
2019-02-02T07:52:16.345Z,1.43
2019-02-02T07:53:26.439Z,1.43
2019-02-02T07:54:38.046Z,1.46
2019-02-02T07:55:48.009Z,1.39
2019-02-02T07:56:57.969Z,1.4
2019-02-02T07:58:07.975Z,1.46
2019-02-02T07:59:18.029Z,1.4
2019-02-02T08:00:39.588Z,1.46
2019-02-02T08:01:50.052Z,1.49
2019-02-02T08:02:59.491Z,1.46
2019-02-02T08:04:09.173Z,1.57
2019-02-02T08:05:19.115Z,1.46
2019-02-02T08:06:28.545Z,1.6
2019-02-02T08:07:38.476Z,1.63
2019-02-02T08:08:48.423Z,1.63
2019-02-02T08:09:58.131Z,1.66
2019-02-02T08:11:07.680Z,1.58
2019-02-02T08:12:19.429Z,1.66
2019-02-02T08:13:29.304Z,1.64
2019-02-02T08:14:39.267Z,1.71
2019-02-02T08:15:49.215Z,1.68
2019-02-02T08:16:59.171Z,1.7
2019-02-02T08:18:09.133Z,1.81
2019-02-02T08:19:19.070Z,1.84
2019-02-02T08:20:31.053Z,1.81
2019-02-02T08:21:40.746Z,1.79
2019-02-02T08:22:50.451Z,1.85
2019-02-02T08:24:01.916Z,1.84
2019-02-02T08:25:11.407Z,1.86
2019-02-02T08:26:21.351Z,1.86
2019-02-02T08:27:31.035Z,1.88
2019-02-02T08:28:40.975Z,1.86
2019-02-02T08:29:50.911Z,1.95
2019-02-02T08:31:00.596Z,1.88
2019-02-02T08:32:10.559Z,1.84
2019-02-02T08:33:20.250Z,1.81
2019-02-02T08:34:30.198Z,1.85
2019-02-02T08:35:40.142Z,1.88
2019-02-02T08:36:49.837Z,1.89
2019-02-02T08:37:59.856Z,1.82
2019-02-02T08:39:09.801Z,1.89
2019-02-02T08:40:19.751Z,1.84
2019-02-02T08:41:29.745Z,1.93
2019-02-02T08:42:39.688Z,1.86
2019-02-02T08:43:49.433Z,1.88
2019-02-02T08:44:59.373Z,1.81
2019-02-02T08:46:08.835Z,1.82
2019-02-02T08:47:18.775Z,1.79
2019-02-02T08:48:28.461Z,1.92
2019-02-02T08:49:40.358Z,1.93
2019-02-02T08:50:50.182Z,1.97
2019-02-02T08:51:59.863Z,1.88
2019-02-02T08:53:09.585Z,1.93
2019-02-02T08:54:19.433Z,1.89
2019-02-02T08:55:29.584Z,1.95
2019-02-02T08:56:39.631Z,1.84
2019-02-02T08:57:49.107Z,1.89
2019-02-02T08:58:59.084Z,1.88
2019-02-02T09:00:09.029Z,1.88
2019-02-02T09:01:18.983Z,1.86
2019-02-02T09:02:28.935Z,1.89
2019-02-02T09:03:39.113Z,1.95
2019-02-02T09:04:49.127Z,1.93
2019-02-02T09:05:59.277Z,1.98
2019-02-02T09:07:09.459Z,1.95
2019-02-02T09:08:19.421Z,1.92
2019-02-02T09:09:29.365Z,2
2019-02-02T09:10:39.062Z,1.89
2019-02-02T09:11:51.057Z,1.97
2019-02-02T09:13:01.007Z,2.01
2019-02-02T09:14:10.705Z,2
2019-02-02T09:15:20.687Z,1.93
2019-02-02T09:16:30.641Z,1.92
2019-02-02T09:17:43.542Z,1.93
2019-02-02T09:18:56.185Z,2.01
2019-02-02T09:20:06.128Z,1.93
2019-02-02T09:21:16.082Z,1.92
2019-02-02T09:22:25.767Z,1.79
2019-02-02T09:23:35.709Z,1.76
2019-02-02T09:24:45.653Z,1.82
2019-02-02T09:25:57.039Z,1.84
2019-02-02T09:27:06.727Z,1.79
2019-02-02T09:28:16.687Z,1.81
2019-02-02T09:29:26.659Z,1.88
2019-02-02T09:30:36.113Z,1.89
2019-02-02T09:31:45.834Z,1.97
2019-02-02T09:32:55.572Z,2
2019-02-02T09:34:05.272Z,1.89
2019-02-02T09:35:14.983Z,1.89
2019-02-02T09:36:24.921Z,2.03
2019-02-02T09:37:34.639Z,2.04
2019-02-02T09:38:44.605Z,2.07
2019-02-02T09:39:54.552Z,2.05
2019-02-02T09:41:04.243Z,2.01
2019-02-02T09:42:13.687Z,2.04
2019-02-02T09:43:23.633Z,2.12
2019-02-02T09:44:33.581Z,2.1
2019-02-02T09:45:43.285Z,2.15
2019-02-02T09:46:53.109Z,2.15
2019-02-02T09:48:03.100Z,2.19
2019-02-02T09:49:13.052Z,2.3
2019-02-02T09:50:22.742Z,2.21
2019-02-02T09:51:32.434Z,2.21
2019-02-02T09:52:42.389Z,2.14
2019-02-02T09:53:53.544Z,2.15
2019-02-02T09:55:03.730Z,2.01
2019-02-02T09:56:13.440Z,2.04
2019-02-02T09:57:23.382Z,2.01
2019-02-02T09:58:35.369Z,2.04
2019-02-02T09:59:45.323Z,1.95
2019-02-02T10:00:55.261Z,2
2019-02-02T10:02:05.220Z,1.85
2019-02-02T10:03:15.307Z,1.95
2019-02-02T10:04:24.998Z,1.95
2019-02-02T10:05:34.452Z,2.01
2019-02-02T10:06:44.143Z,2
2019-02-02T10:07:54.109Z,2.03
2019-02-02T10:09:03.807Z,2.03
2019-02-02T10:10:13.250Z,2.16
2019-02-02T10:11:23.201Z,2.16
2019-02-02T10:12:33.164Z,2.15
2019-02-02T10:13:42.864Z,2.15
2019-02-02T10:14:52.830Z,2.19
2019-02-02T10:16:02.779Z,2.12
2019-02-02T10:17:12.485Z,2.07
2019-02-02T10:18:21.926Z,2
2019-02-02T10:19:31.899Z,2.08
2019-02-02T10:20:41.879Z,1.88
2019-02-02T10:21:54.633Z,2.08
2019-02-02T10:23:04.769Z,2
2019-02-02T10:24:14.845Z,2.01
2019-02-02T10:25:24.776Z,1.93
2019-02-02T10:26:34.738Z,1.97
2019-02-02T10:27:44.169Z,1.98
2019-02-02T10:28:53.602Z,1.98
2019-02-02T10:30:03.559Z,1.88
2019-02-02T10:31:13.274Z,1.95
2019-02-02T10:32:22.478Z,2
2019-02-02T10:33:32.189Z,2.01
2019-02-02T10:34:41.872Z,2.07
2019-02-02T10:35:51.824Z,1.97
2019-02-02T10:37:01.781Z,2.1
2019-02-02T10:38:11.713Z,2.07
2019-02-02T10:39:21.649Z,2.16
2019-02-02T10:40:34.818Z,2.15
2019-02-02T10:41:44.549Z,2.23
2019-02-02T10:42:54.498Z,2.3
2019-02-02T10:44:04.704Z,2.23
2019-02-02T10:45:14.392Z,2.33
2019-02-02T10:46:23.839Z,2.34
2019-02-02T10:47:33.552Z,2.25
2019-02-02T10:48:43.254Z,2.26
2019-02-02T10:49:52.943Z,2.32
2019-02-02T10:51:03.032Z,2.25
2019-02-02T10:52:12.990Z,2.33
2019-02-02T10:53:22.952Z,2.43
2019-02-02T10:54:32.656Z,2.39
2019-02-02T10:55:42.612Z,2.39
2019-02-02T10:56:52.544Z,2.39
2019-02-02T10:58:02.484Z,2.37
2019-02-02T10:59:12.169Z,2.36
2019-02-02T11:00:21.655Z,2.4
2019-02-02T11:01:31.605Z,2.39
2019-02-02T11:02:41.298Z,2.39
2019-02-02T11:03:51.252Z,2.46
2019-02-02T11:05:00.906Z,2.5
2019-02-02T11:06:11.307Z,2.59
2019-02-02T11:07:21.549Z,2.59
2019-02-02T11:08:31.878Z,2.72
2019-02-02T11:09:42.266Z,2.69
2019-02-02T11:10:52.781Z,2.73
2019-02-02T11:12:03.007Z,2.73
2019-02-02T11:13:14.445Z,2.82
2019-02-02T11:14:26.542Z,2.83
2019-02-02T11:15:37.153Z,2.82
2019-02-02T11:16:47.510Z,2.82
2019-02-02T11:17:58.051Z,2.9
2019-02-02T11:19:08.440Z,2.82
2019-02-02T11:20:20.269Z,2.72
2019-02-02T11:21:30.510Z,2.76
2019-02-02T11:22:40.742Z,2.69
2019-02-02T11:23:50.627Z,2.59
2019-02-02T11:25:00.424Z,2.57
2019-02-02T11:26:10.851Z,2.54
2019-02-02T11:27:21.246Z,2.73
2019-02-02T11:28:31.756Z,2.55
2019-02-02T11:29:41.796Z,2.59
2019-02-02T11:30:54.745Z,2.72
2019-02-02T11:32:07.903Z,2.76
2019-02-02T11:33:17.916Z,2.76
2019-02-02T11:34:27.912Z,2.73
2019-02-02T11:35:37.873Z,2.75
2019-02-02T11:36:48.756Z,2.73
2019-02-02T11:37:58.481Z,2.72
2019-02-02T11:39:08.423Z,2.75
2019-02-02T11:40:18.138Z,2.77
2019-02-02T11:41:28.117Z,2.72
2019-02-02T11:42:40.995Z,2.72
2019-02-02T11:43:51.191Z,2.75
2019-02-02T11:45:01.262Z,2.82
2019-02-02T11:46:10.968Z,2.87
2019-02-02T11:47:20.673Z,2.83
2019-02-02T11:48:30.636Z,2.8
2019-02-02T11:49:40.588Z,2.87
2019-02-02T11:50:50.545Z,2.87
2019-02-02T11:52:00.518Z,2.9
2019-02-02T11:53:10.234Z,2.8
2019-02-02T11:54:19.922Z,2.83
2019-02-02T11:55:29.619Z,2.72
2019-02-02T11:56:39.317Z,2.8
2019-02-02T11:57:52.363Z,2.75
2019-02-02T11:59:02.072Z,2.72
2019-02-02T12:00:11.758Z,2.73
2019-02-02T12:01:23.796Z,2.72
2019-02-02T12:02:33.894Z,2.77
2019-02-02T12:03:54.818Z,2.65
2019-02-02T12:05:04.514Z,2.68
2019-02-02T12:06:14.208Z,2.7
2019-02-02T12:07:24.170Z,2.59
2019-02-02T12:08:34.130Z,2.46
2019-02-02T12:09:44.202Z,2.52
2019-02-02T12:10:54.153Z,2.46
2019-02-02T12:12:04.107Z,2.39
2019-02-02T12:13:13.800Z,2.44
2019-02-02T12:14:23.263Z,2.36
2019-02-02T12:15:33.218Z,2.32
2019-02-02T12:16:42.947Z,2.33
2019-02-02T12:17:52.922Z,2.26
2019-02-02T12:19:02.658Z,2.26
2019-02-02T12:20:12.106Z,2.14
2019-02-02T12:21:21.598Z,2.19
2019-02-02T12:22:31.532Z,2.19
2019-02-02T12:23:41.521Z,2.04
2019-02-02T12:24:51.480Z,2.03
2019-02-02T12:26:00.925Z,2.05
2019-02-02T12:27:10.898Z,2.1
2019-02-02T12:28:20.599Z,2.07
2019-02-02T12:29:30.549Z,2.03
2019-02-02T12:30:40.246Z,2.05
2019-02-02T12:31:49.932Z,2.07
2019-02-02T12:33:02.868Z,2.03
2019-02-02T12:34:13.271Z,2.08
2019-02-02T12:35:23.217Z,2.05
2019-02-02T12:36:32.902Z,2.03
2019-02-02T12:37:42.638Z,2.04
2019-02-02T12:38:52.594Z,2.04
2019-02-02T12:40:02.628Z,2.07
2019-02-02T12:41:12.638Z,2.05
2019-02-02T12:42:22.469Z,2.07
2019-02-02T12:43:32.414Z,2.05
2019-02-02T12:44:42.121Z,2.12
2019-02-02T12:45:52.099Z,2.22
2019-02-02T12:47:01.819Z,2.1
2019-02-02T12:48:11.754Z,2.08
2019-02-02T12:49:21.701Z,2.14
2019-02-02T12:50:30.881Z,2.07
2019-02-02T12:51:40.808Z,2.05
2019-02-02T12:52:50.749Z,2.05
2019-02-02T12:54:00.861Z,2.05
2019-02-02T12:55:10.937Z,2
2019-02-02T12:56:20.664Z,2.03
2019-02-02T12:57:30.364Z,2.07
2019-02-02T12:58:39.602Z,2.08
2019-02-02T12:59:49.543Z,2.01
2019-02-02T13:00:59.234Z,2.01
2019-02-02T13:02:08.916Z,2.01
2019-02-02T13:03:18.864Z,2.03
2019-02-02T13:04:28.821Z,2.04
2019-02-02T13:05:41.287Z,1.97
2019-02-02T13:06:52.178Z,2.03
2019-02-02T13:08:05.079Z,2.07
2019-02-02T13:09:15.228Z,2.07
2019-02-02T13:10:27.063Z,2.04
2019-02-02T13:11:36.779Z,2.08
2019-02-02T13:12:46.731Z,1.98
2019-02-02T13:13:56.692Z,2.05
2019-02-02T13:15:06.371Z,2
2019-02-02T13:16:16.060Z,1.89
2019-02-02T13:17:26.013Z,2.01
2019-02-02T13:18:35.976Z,2
2019-02-02T13:19:45.918Z,2
2019-02-02T13:20:55.352Z,1.93
2019-02-02T13:22:05.307Z,1.98
2019-02-02T13:23:15.241Z,1.88
2019-02-02T13:24:25.178Z,1.85
2019-02-02T13:25:35.150Z,1.84
2019-02-02T13:26:44.864Z,1.84
2019-02-02T13:27:54.813Z,1.84
2019-02-02T13:29:04.891Z,1.84
2019-02-02T13:30:14.890Z,1.7
2019-02-02T13:31:25.910Z,1.61
2019-02-02T13:32:35.854Z,1.6
2019-02-02T13:33:57.008Z,1.64
2019-02-02T13:35:06.951Z,1.66
2019-02-02T13:36:16.677Z,1.56
2019-02-02T13:37:26.629Z,1.52
2019-02-02T13:38:36.577Z,1.43
2019-02-02T13:39:46.537Z,1.46
2019-02-02T13:40:56.227Z,1.45
2019-02-02T13:42:05.949Z,1.48
2019-02-02T13:43:15.771Z,1.48
2019-02-02T13:44:25.217Z,1.49
2019-02-02T13:45:34.908Z,1.48
2019-02-02T13:46:44.866Z,1.48
2019-02-02T13:47:54.873Z,1.49
2019-02-02T13:49:04.825Z,1.46
2019-02-02T13:50:14.927Z,1.49
2019-02-02T13:51:24.718Z,1.46
2019-02-02T13:52:34.661Z,1.48
2019-02-02T13:53:44.365Z,1.5
2019-02-02T13:54:54.318Z,1.48
2019-02-02T13:56:04.278Z,1.5
2019-02-02T13:57:14.239Z,1.52
2019-02-02T13:58:23.682Z,1.49
2019-02-02T13:59:32.865Z,1.45
2019-02-02T14:00:42.826Z,1.43
2019-02-02T14:01:52.528Z,1.49
2019-02-02T14:03:07.993Z,1.36
2019-02-02T14:04:17.693Z,1.39
2019-02-02T14:05:27.386Z,1.4
2019-02-02T14:06:37.060Z,1.49
2019-02-02T14:07:46.754Z,1.48
2019-02-02T14:08:56.459Z,1.4
2019-02-02T14:10:06.404Z,1.38
2019-02-02T14:11:16.334Z,1.42
2019-02-02T14:12:26.012Z,1.36
2019-02-02T14:13:35.715Z,1.38
2019-02-02T14:14:45.682Z,1.42
2019-02-02T14:15:55.623Z,1.38
2019-02-02T14:17:05.575Z,1.36
2019-02-02T14:18:15.522Z,1.36
2019-02-02T14:19:25.455Z,1.34
2019-02-02T14:20:35.395Z,1.22
2019-02-02T14:21:45.328Z,1.32
2019-02-02T14:22:55.420Z,1.3
2019-02-02T14:24:05.399Z,1.32
2019-02-02T14:25:15.093Z,1.39
2019-02-02T14:26:24.537Z,1.25
2019-02-02T14:27:34.498Z,1.31
2019-02-02T14:28:44.455Z,1.24
2019-02-02T14:29:54.417Z,1.25
2019-02-02T14:31:04.223Z,1.24
2019-02-02T14:32:13.913Z,1.24
2019-02-02T14:33:23.870Z,1.18
2019-02-02T14:34:44.643Z,1.14
2019-02-02T14:35:54.344Z,1.18
2019-02-02T14:37:07.148Z,1.25
2019-02-02T14:38:20.078Z,1.2
2019-02-02T14:39:30.381Z,1.27
2019-02-02T14:40:40.327Z,1.31
2019-02-02T14:41:50.287Z,1.27
2019-02-02T14:43:00.245Z,1.22
2019-02-02T14:44:09.941Z,1.28
2019-02-02T14:45:19.385Z,1.3
2019-02-02T14:46:32.230Z,1.25
2019-02-02T14:47:42.168Z,1.14
2019-02-02T14:48:51.398Z,1.13
2019-02-02T14:50:01.361Z,1.16
2019-02-02T14:51:11.085Z,1.14
2019-02-02T14:52:21.093Z,1.21
2019-02-02T14:53:30.798Z,1.16
2019-02-02T14:54:40.748Z,1.13
2019-02-02T14:55:51.002Z,1.2
2019-02-02T14:57:00.939Z,1.2
2019-02-02T14:58:10.899Z,1.25
2019-02-02T14:59:20.866Z,1.27
2019-02-02T15:00:30.572Z,1.24
2019-02-02T15:01:40.501Z,1.22
2019-02-02T15:02:49.697Z,1.2
2019-02-02T15:03:59.685Z,1.13
2019-02-02T15:05:09.717Z,1.07
2019-02-02T15:06:19.694Z,1.06
2019-02-02T15:07:29.671Z,1.09
2019-02-02T15:08:39.111Z,1.12
2019-02-02T15:09:49.055Z,1.13
2019-02-02T15:10:58.782Z,1.06
2019-02-02T15:12:08.475Z,1.12
2019-02-02T15:13:18.427Z,1.1
2019-02-02T15:14:28.385Z,1.14
2019-02-02T15:15:38.087Z,1.07
2019-02-02T15:16:47.307Z,1.18
2019-02-02T15:17:57.259Z,1.13
2019-02-02T15:19:07.094Z,1.1
2019-02-02T15:20:17.051Z,1.07
2019-02-02T15:21:29.912Z,1.09
2019-02-02T15:22:39.636Z,1.12
2019-02-02T15:23:50.441Z,1.06
2019-02-02T15:24:59.895Z,1.06
2019-02-02T15:26:09.848Z,1.06
2019-02-02T15:27:19.789Z,1.07
2019-02-02T15:28:29.498Z,1.16
2019-02-02T15:29:39.209Z,1.12
2019-02-02T15:30:48.921Z,1.02
2019-02-02T15:31:58.948Z,1.03
2019-02-02T15:33:08.642Z,1.04
2019-02-02T15:34:18.448Z,0.96
2019-02-02T15:35:28.183Z,1.07